BAW1HL EFHK-LGAV
Flight info
| Callsign | BAW1HL |
|---|---|
| Flight time | N/A |
| Altitude | 40000 |
| Route | KOIVU DCT LARTI DCT NAVOT DCT LUTAL DCT BERIL/N0488F410 DCT SUWGI/N0485F400 DCT TITUV M985 SUTIK DCT LOGDA/N0484F410 DCT KSC DCT NARKA DCT ORA DCT ADUKU DCT BAVMA DCT EVRIK DCT OLMIP DCT EKNAB DCT SODGO DCT OVDOT DCT LOMOS/N0478F400 DCT BOBVO DCT LETNI/N0480F410 DCT MAKED DCT SIGFO UM749 ROPOX |
| Aircraft | A35K/H-SDE2E3GHIJ3J4J5LM1ORWXY/LB1D1 |
Departure
| Time | 2026-05-06 21:32 |
|---|---|
| Airport | Helsinki Vantaa Airport (EFHK) |
Arrival
| Time | N/A |
|---|---|
| Airport | Athens Eleftherios Venizelos International Airport (LGAV) |
| Time | Latitude | Longitude | Altitude | Speed | Heading |
|---|---|---|---|---|---|
| 2026-05-06 20:21 | 60.31369 | 24.95389 | 173 ft | 0 kts | 140° |
| 2026-05-06 21:15 | 60.31362 | 24.95400 | 173 ft | 4 kts | 140° |
| 2026-05-06 21:15 | 60.31341 | 24.95437 | 173 ft | 4 kts | 140° |
| 2026-05-06 21:15 | 60.31329 | 24.95457 | 173 ft | 3 kts | 140° |
| 2026-05-06 21:16 | 60.31349 | 24.95422 | 173 ft | 4 kts | 138° |
| 2026-05-06 21:16 | 60.31370 | 24.95385 | 173 ft | 4 kts | 137° |
| 2026-05-06 21:16 | 60.31389 | 24.95349 | 173 ft | 4 kts | 139° |
| 2026-05-06 21:16 | 60.31411 | 24.95322 | 173 ft | 4 kts | 170° |
| 2026-05-06 21:17 | 60.31436 | 24.95326 | 173 ft | 3 kts | 210° |
| 2026-05-06 21:17 | 60.31444 | 24.95336 | 173 ft | 4 kts | 227° |
| 2026-05-06 21:17 | 60.31424 | 24.95294 | 173 ft | 4 kts | 227° |
| 2026-05-06 21:17 | 60.31405 | 24.95252 | 173 ft | 4 kts | 227° |
| 2026-05-06 21:18 | 60.31385 | 24.95210 | 173 ft | 4 kts | 227° |
| 2026-05-06 21:18 | 60.31360 | 24.95156 | 173 ft | 8 kts | 227° |
| 2026-05-06 21:18 | 60.31345 | 24.95121 | 173 ft | 0 kts | 227° |
| 2026-05-06 21:21 | 60.31344 | 24.95110 | 173 ft | 1 kts | 255° |
| 2026-05-06 21:21 | 60.31349 | 24.95096 | 173 ft | 1 kts | 306° |
| 2026-05-06 21:21 | 60.31420 | 24.95038 | 173 ft | 21 kts | 332° |
| 2026-05-06 21:21 | 60.31547 | 24.95119 | 176 ft | 23 kts | 47° |
| 2026-05-06 21:22 | 60.31673 | 24.95396 | 177 ft | 29 kts | 48° |
| 2026-05-06 21:22 | 60.31734 | 24.95535 | 177 ft | 1 kts | 48° |
| 2026-05-06 21:22 | 60.31765 | 24.95603 | 176 ft | 12 kts | 45° |
| 2026-05-06 21:22 | 60.31831 | 24.95753 | 175 ft | 15 kts | 53° |
| 2026-05-06 21:23 | 60.31843 | 24.95780 | 175 ft | 0 kts | 46° |
| 2026-05-06 21:23 | 60.31846 | 24.95785 | 175 ft | 3 kts | 46° |
| 2026-05-06 21:23 | 60.31882 | 24.95858 | 175 ft | 11 kts | 45° |
| 2026-05-06 21:24 | 60.31899 | 24.95893 | 176 ft | 3 kts | 45° |
| 2026-05-06 21:24 | 60.31934 | 24.95964 | 176 ft | 7 kts | 45° |
| 2026-05-06 21:24 | 60.31936 | 24.95968 | 176 ft | 0 kts | 45° |
| 2026-05-06 21:24 | 60.31937 | 24.95969 | 176 ft | 1 kts | 45° |
| 2026-05-06 21:25 | 60.31940 | 24.95974 | 176 ft | 0 kts | 40° |
| 2026-05-06 21:25 | 60.31946 | 24.95975 | 176 ft | 1 kts | 11° |
| 2026-05-06 21:25 | 60.31961 | 24.95960 | 178 ft | 6 kts | 336° |
| 2026-05-06 21:25 | 60.32020 | 24.95862 | 179 ft | 17 kts | 317° |
| 2026-05-06 21:26 | 60.32130 | 24.95652 | 179 ft | 26 kts | 317° |
| 2026-05-06 21:26 | 60.32240 | 24.95445 | 181 ft | 18 kts | 317° |
| 2026-05-06 21:26 | 60.32357 | 24.95268 | 183 ft | 24 kts | 334° |
| 2026-05-06 21:26 | 60.32407 | 24.95227 | 186 ft | 3 kts | 340° |
| 2026-05-06 21:27 | 60.32457 | 24.95193 | 198 ft | 11 kts | 341° |
| 2026-05-06 21:27 | 60.32557 | 24.95133 | 194 ft | 19 kts | 345° |
| 2026-05-06 21:27 | 60.32706 | 24.95047 | 202 ft | 26 kts | 343° |
| 2026-05-06 21:27 | 60.32897 | 24.94895 | 181 ft | 30 kts | 326° |
| 2026-05-06 21:28 | 60.32971 | 24.94771 | 191 ft | 9 kts | 318° |
| 2026-05-06 21:28 | 60.33012 | 24.94697 | 201 ft | 0 kts | 318° |
| 2026-05-06 21:28 | 60.33015 | 24.94691 | 187 ft | 1 kts | 318° |
| 2026-05-06 21:29 | 60.33032 | 24.94662 | 190 ft | 7 kts | 317° |
| 2026-05-06 21:29 | 60.33085 | 24.94556 | 197 ft | 14 kts | 316° |
| 2026-05-06 21:29 | 60.33108 | 24.94400 | 206 ft | 11 kts | 244° |
| 2026-05-06 21:30 | 60.33063 | 24.94278 | 195 ft | 0 kts | 227° |
| 2026-05-06 21:31 | 60.32984 | 24.94106 | 208 ft | 43 kts | 227° |
| 2026-05-06 21:32 | 60.32597 | 24.93250 | 202 ft | 119 kts | 227° |
| 2026-05-06 21:32 | 60.31059 | 24.89932 | 665 ft | 189 kts | 226° |
| 2026-05-06 21:32 | 60.30227 | 24.87762 | 1178 ft | 201 kts | 241° |
| 2026-05-06 21:33 | 60.29984 | 24.84997 | 1887 ft | 204 kts | 276° |
| 2026-05-06 21:33 | 60.30148 | 24.82064 | 2204 ft | 226 kts | 277° |
| 2026-05-06 21:33 | 60.30242 | 24.78712 | 2268 ft | 248 kts | 268° |
| 2026-05-06 21:33 | 60.29808 | 24.75304 | 2740 ft | 253 kts | 249° |
| 2026-05-06 21:34 | 60.29160 | 24.72005 | 3573 ft | 254 kts | 249° |
| 2026-05-06 21:34 | 60.28501 | 24.68670 | 4351 ft | 257 kts | 248° |
| 2026-05-06 21:34 | 60.27825 | 24.65297 | 5088 ft | 262 kts | 248° |
| 2026-05-06 21:34 | 60.26941 | 24.62078 | 5843 ft | 266 kts | 232° |
| 2026-05-06 21:35 | 60.25543 | 24.59635 | 6583 ft | 270 kts | 208° |
| 2026-05-06 21:35 | 60.23750 | 24.58746 | 7341 ft | 272 kts | 179° |
| 2026-05-06 21:35 | 60.21855 | 24.59025 | 8154 ft | 275 kts | 173° |
| 2026-05-06 21:35 | 60.19953 | 24.59456 | 8989 ft | 276 kts | 173° |
| 2026-05-06 21:36 | 60.18043 | 24.59871 | 9830 ft | 278 kts | 173° |
| 2026-05-06 21:36 | 60.16096 | 24.60278 | 10472 ft | 289 kts | 174° |
| 2026-05-06 21:36 | 60.14029 | 24.60699 | 10860 ft | 308 kts | 174° |
| 2026-05-06 21:36 | 60.11843 | 24.61140 | 11237 ft | 325 kts | 175° |
| 2026-05-06 21:37 | 60.09541 | 24.61598 | 11679 ft | 340 kts | 175° |
| 2026-05-06 21:37 | 60.07177 | 24.62067 | 12224 ft | 349 kts | 176° |
| 2026-05-06 21:37 | 60.04694 | 24.62557 | 12796 ft | 359 kts | 176° |
| 2026-05-06 21:37 | 60.02224 | 24.63043 | 13444 ft | 363 kts | 177° |
| 2026-05-06 21:38 | 59.99715 | 24.63538 | 14195 ft | 365 kts | 178° |
| 2026-05-06 21:38 | 59.97177 | 24.64039 | 14935 ft | 366 kts | 178° |
| 2026-05-06 21:38 | 59.94637 | 24.64539 | 15647 ft | 368 kts | 178° |
| 2026-05-06 21:38 | 59.92087 | 24.65040 | 16307 ft | 368 kts | 179° |
| 2026-05-06 21:39 | 59.89509 | 24.65568 | 16909 ft | 372 kts | 179° |
| 2026-05-06 21:39 | 59.86923 | 24.66055 | 17512 ft | 377 kts | 179° |
| 2026-05-06 21:39 | 59.84316 | 24.66200 | 18212 ft | 371 kts | 190° |
| 2026-05-06 21:39 | 59.81771 | 24.65490 | 18835 ft | 369 kts | 195° |
| 2026-05-06 21:40 | 59.79276 | 24.64464 | 19415 ft | 371 kts | 198° |
| 2026-05-06 21:40 | 59.76758 | 24.63235 | 20014 ft | 374 kts | 199° |
| 2026-05-06 21:40 | 59.74242 | 24.61938 | 20629 ft | 375 kts | 199° |
| 2026-05-06 21:40 | 59.71702 | 24.60639 | 21215 ft | 378 kts | 199° |
| 2026-05-06 21:41 | 59.69138 | 24.59355 | 21812 ft | 381 kts | 199° |
| 2026-05-06 21:41 | 59.66559 | 24.58103 | 22457 ft | 383 kts | 198° |
| 2026-05-06 21:41 | 59.63970 | 24.56828 | 23124 ft | 384 kts | 199° |
| 2026-05-06 21:41 | 59.61382 | 24.55486 | 23769 ft | 386 kts | 200° |
| 2026-05-06 21:42 | 59.58784 | 24.54107 | 24369 ft | 388 kts | 200° |
| 2026-05-06 21:42 | 59.56169 | 24.52713 | 24966 ft | 391 kts | 200° |
| 2026-05-06 21:42 | 59.53529 | 24.51315 | 25562 ft | 393 kts | 200° |
| 2026-05-06 21:42 | 59.50878 | 24.49926 | 26111 ft | 396 kts | 199° |
| 2026-05-06 21:43 | 59.48278 | 24.48576 | 26634 ft | 399 kts | 199° |
| 2026-05-06 21:43 | 59.45626 | 24.47207 | 27162 ft | 401 kts | 199° |
| 2026-05-06 21:43 | 59.42921 | 24.45816 | 27685 ft | 403 kts | 199° |
| 2026-05-06 21:43 | 59.40200 | 24.44420 | 28210 ft | 406 kts | 199° |
| 2026-05-06 21:44 | 59.37473 | 24.43024 | 28716 ft | 408 kts | 199° |
| 2026-05-06 21:44 | 59.34709 | 24.41609 | 29197 ft | 410 kts | 198° |
| 2026-05-06 21:44 | 59.31928 | 24.40254 | 29679 ft | 413 kts | 196° |
| 2026-05-06 21:44 | 59.29102 | 24.39159 | 30132 ft | 416 kts | 194° |
| 2026-05-06 21:45 | 59.26235 | 24.38201 | 30553 ft | 419 kts | 193° |
| 2026-05-06 21:45 | 59.23349 | 24.37276 | 30915 ft | 422 kts | 193° |
| 2026-05-06 21:45 | 59.20448 | 24.36333 | 31282 ft | 424 kts | 194° |
| 2026-05-06 21:45 | 59.17574 | 24.35367 | 31629 ft | 426 kts | 194° |
| 2026-05-06 21:46 | 59.14652 | 24.34357 | 31937 ft | 429 kts | 194° |
| 2026-05-06 21:46 | 59.11709 | 24.33321 | 32232 ft | 431 kts | 194° |
| 2026-05-06 21:46 | 59.08751 | 24.32269 | 32548 ft | 433 kts | 194° |
| 2026-05-06 21:46 | 59.05740 | 24.31198 | 32855 ft | 435 kts | 194° |
| 2026-05-06 21:47 | 59.02758 | 24.30137 | 33186 ft | 436 kts | 194° |
| 2026-05-06 21:47 | 58.99776 | 24.29083 | 33630 ft | 434 kts | 194° |
| 2026-05-06 21:47 | 58.96804 | 24.28037 | 34001 ft | 434 kts | 194° |
| 2026-05-06 21:47 | 58.93832 | 24.26991 | 34341 ft | 434 kts | 194° |
| 2026-05-06 21:48 | 58.90865 | 24.25947 | 34650 ft | 435 kts | 194° |
| 2026-05-06 21:48 | 58.87883 | 24.24899 | 34946 ft | 435 kts | 194° |
| 2026-05-06 21:48 | 58.84939 | 24.23864 | 35158 ft | 438 kts | 194° |
| 2026-05-06 21:48 | 58.81937 | 24.22811 | 35449 ft | 438 kts | 194° |
| 2026-05-06 21:49 | 58.78944 | 24.21763 | 35730 ft | 439 kts | 194° |
| 2026-05-06 21:49 | 58.75929 | 24.20709 | 35952 ft | 440 kts | 194° |
| 2026-05-06 21:49 | 58.72909 | 24.19656 | 36174 ft | 442 kts | 194° |
| 2026-05-06 21:49 | 58.69883 | 24.18604 | 36432 ft | 443 kts | 194° |
| 2026-05-06 21:50 | 58.66842 | 24.17549 | 36655 ft | 444 kts | 194° |
| 2026-05-06 21:50 | 58.63848 | 24.16512 | 36927 ft | 443 kts | 194° |
| 2026-05-06 21:50 | 58.60820 | 24.15468 | 37287 ft | 440 kts | 194° |
| 2026-05-06 21:50 | 58.57811 | 24.14433 | 37571 ft | 439 kts | 194° |
| 2026-05-06 21:51 | 58.54841 | 24.13416 | 38215 ft | 428 kts | 194° |
| 2026-05-06 21:51 | 58.51934 | 24.12422 | 38701 ft | 423 kts | 194° |
| 2026-05-06 21:51 | 58.49032 | 24.11425 | 38835 ft | 426 kts | 194° |
| 2026-05-06 21:51 | 58.46105 | 24.10419 | 38957 ft | 428 kts | 194° |
| 2026-05-06 21:52 | 58.43174 | 24.09412 | 39149 ft | 429 kts | 194° |
| 2026-05-06 21:52 | 58.40277 | 24.08416 | 39356 ft | 428 kts | 194° |
| 2026-05-06 21:52 | 58.37343 | 24.07412 | 39512 ft | 429 kts | 194° |
| 2026-05-06 21:52 | 58.34407 | 24.06409 | 39646 ft | 430 kts | 194° |
| 2026-05-06 21:53 | 58.31456 | 24.05405 | 39807 ft | 430 kts | 194° |
| 2026-05-06 21:53 | 58.28506 | 24.04402 | 39915 ft | 432 kts | 194° |
| 2026-05-06 21:53 | 58.22566 | 24.02393 | 39992 ft | 433 kts | 194° |
| 2026-05-06 21:54 | 58.16631 | 24.00393 | 39989 ft | 434 kts | 194° |
| 2026-05-06 21:54 | 58.10626 | 23.98370 | 39983 ft | 443 kts | 194° |
| 2026-05-06 21:55 | 58.04565 | 23.96339 | 39978 ft | 445 kts | 194° |
| 2026-05-06 21:55 | 57.98467 | 23.94307 | 39968 ft | 445 kts | 194° |
| 2026-05-06 21:56 | 57.92371 | 23.92281 | 39964 ft | 445 kts | 194° |
| 2026-05-06 21:56 | 57.86284 | 23.90261 | 39962 ft | 444 kts | 194° |
| 2026-05-06 21:57 | 57.80195 | 23.88246 | 39958 ft | 451 kts | 193° |
| 2026-05-06 21:57 | 57.73962 | 23.86193 | 39957 ft | 458 kts | 193° |
| 2026-05-06 21:58 | 57.67699 | 23.84143 | 39955 ft | 456 kts | 193° |
| 2026-05-06 21:58 | 57.61444 | 23.82101 | 39952 ft | 456 kts | 193° |
| 2026-05-06 21:59 | 57.55194 | 23.80064 | 39955 ft | 456 kts | 193° |
| 2026-05-06 21:59 | 57.48943 | 23.78035 | 39944 ft | 456 kts | 193° |
| 2026-05-06 22:00 | 57.42739 | 23.76030 | 39936 ft | 456 kts | 193° |
| 2026-05-06 22:00 | 57.36495 | 23.74015 | 39933 ft | 456 kts | 193° |
| 2026-05-06 22:01 | 57.30243 | 23.72003 | 39926 ft | 456 kts | 193° |
| 2026-05-06 22:01 | 57.23996 | 23.70001 | 39926 ft | 455 kts | 193° |
| 2026-05-06 22:02 | 57.17799 | 23.68022 | 39922 ft | 455 kts | 193° |
| 2026-05-06 22:02 | 57.11574 | 23.66045 | 39918 ft | 454 kts | 193° |
| 2026-05-06 22:03 | 57.05336 | 23.64069 | 39912 ft | 455 kts | 193° |
| 2026-05-06 22:03 | 56.99105 | 23.62101 | 39917 ft | 454 kts | 193° |
| 2026-05-06 22:04 | 56.92875 | 23.60139 | 39916 ft | 454 kts | 193° |
| 2026-05-06 22:04 | 56.86642 | 23.58184 | 39913 ft | 454 kts | 193° |
| 2026-05-06 22:05 | 56.80453 | 23.56249 | 39914 ft | 454 kts | 193° |
| 2026-05-06 22:05 | 56.74225 | 23.54309 | 39908 ft | 454 kts | 193° |
| 2026-05-06 22:06 | 56.67997 | 23.52377 | 39906 ft | 454 kts | 193° |
| 2026-05-06 22:06 | 56.61772 | 23.50454 | 39906 ft | 454 kts | 193° |
| 2026-05-06 22:07 | 56.55588 | 23.48547 | 39906 ft | 455 kts | 193° |
| 2026-05-06 22:07 | 56.49345 | 23.46627 | 39899 ft | 455 kts | 193° |
| 2026-05-06 22:08 | 56.43106 | 23.44716 | 39897 ft | 455 kts | 193° |
| 2026-05-06 22:08 | 56.36869 | 23.42813 | 39897 ft | 455 kts | 193° |
| 2026-05-06 22:09 | 56.30649 | 23.41103 | 39889 ft | 455 kts | 191° |
| 2026-05-06 22:09 | 56.24360 | 23.39659 | 39888 ft | 456 kts | 191° |
| 2026-05-06 22:10 | 56.18062 | 23.38210 | 39888 ft | 456 kts | 191° |
| 2026-05-06 22:10 | 56.11777 | 23.36720 | 39888 ft | 456 kts | 191° |
| 2026-05-06 22:11 | 56.05531 | 23.35224 | 39888 ft | 455 kts | 191° |
| 2026-05-06 22:11 | 55.99250 | 23.33718 | 39887 ft | 455 kts | 191° |
| 2026-05-06 22:12 | 55.92973 | 23.32222 | 39888 ft | 455 kts | 191° |
| 2026-05-06 22:12 | 55.86742 | 23.30751 | 39890 ft | 447 kts | 191° |
| 2026-05-06 22:13 | 55.80613 | 23.29302 | 39888 ft | 443 kts | 191° |
| 2026-05-06 22:13 | 55.74618 | 23.27892 | 39884 ft | 420 kts | 191° |
| 2026-05-06 22:14 | 55.71806 | 23.27238 | 39885 ft | 405 kts | 191° |
| 2026-05-06 22:14 | 55.69037 | 23.26591 | 39885 ft | 402 kts | 192° |
| 2026-05-06 22:14 | 55.63457 | 23.25267 | 39876 ft | 407 kts | 192° |
| 2026-05-06 22:15 | 55.57821 | 23.23938 | 39879 ft | 409 kts | 191° |
| 2026-05-06 22:15 | 55.52170 | 23.22617 | 39875 ft | 410 kts | 191° |
| 2026-05-06 22:16 | 55.46558 | 23.21316 | 39870 ft | 409 kts | 191° |
| 2026-05-06 22:16 | 55.40909 | 23.20008 | 39869 ft | 410 kts | 191° |
| 2026-05-06 22:17 | 55.35197 | 23.18685 | 39858 ft | 418 kts | 191° |
| 2026-05-06 22:17 | 55.29361 | 23.17339 | 39859 ft | 428 kts | 191° |
| 2026-05-06 22:18 | 55.23402 | 23.15968 | 39856 ft | 436 kts | 191° |
| 2026-05-06 22:18 | 55.17318 | 23.14574 | 39852 ft | 445 kts | 191° |
| 2026-05-06 22:19 | 55.11163 | 23.13167 | 39852 ft | 453 kts | 191° |
| 2026-05-06 22:19 | 55.04867 | 23.11737 | 39848 ft | 456 kts | 191° |
| 2026-05-06 22:20 | 54.98580 | 23.10317 | 39841 ft | 456 kts | 191° |
| 2026-05-06 22:20 | 54.92299 | 23.08899 | 39836 ft | 455 kts | 191° |
| 2026-05-06 22:21 | 54.86005 | 23.07479 | 39838 ft | 456 kts | 191° |
| 2026-05-06 22:21 | 54.79763 | 23.06075 | 39838 ft | 456 kts | 191° |
| 2026-05-06 22:22 | 54.73467 | 23.04665 | 39827 ft | 456 kts | 191° |
| 2026-05-06 22:22 | 54.67175 | 23.03261 | 39838 ft | 456 kts | 191° |
| 2026-05-06 22:23 | 54.60883 | 23.01858 | 39827 ft | 456 kts | 191° |
| 2026-05-06 22:23 | 54.54585 | 23.00459 | 39832 ft | 456 kts | 191° |
| 2026-05-06 22:24 | 54.48287 | 22.99066 | 39831 ft | 456 kts | 190° |
| 2026-05-06 22:24 | 54.42029 | 22.97686 | 39831 ft | 456 kts | 190° |
| 2026-05-06 22:25 | 54.35727 | 22.96301 | 39826 ft | 456 kts | 190° |
| 2026-05-06 22:25 | 54.29430 | 22.94920 | 39816 ft | 456 kts | 190° |
| 2026-05-06 22:26 | 54.23136 | 22.93540 | 39820 ft | 456 kts | 190° |
| 2026-05-06 22:26 | 54.16842 | 22.92171 | 39829 ft | 456 kts | 190° |
| 2026-05-06 22:27 | 54.10594 | 22.90738 | 39825 ft | 455 kts | 193° |
| 2026-05-06 22:27 | 54.04633 | 22.87469 | 39824 ft | 449 kts | 208° |
| 2026-05-06 22:28 | 53.99194 | 22.82299 | 39822 ft | 448 kts | 212° |
| 2026-05-06 22:28 | 53.93851 | 22.76825 | 39817 ft | 450 kts | 213° |
| 2026-05-06 22:29 | 53.88471 | 22.71379 | 39811 ft | 451 kts | 210° |
| 2026-05-06 22:29 | 53.82648 | 22.67550 | 39815 ft | 455 kts | 196° |
| 2026-05-06 22:30 | 53.76426 | 22.65339 | 39812 ft | 458 kts | 193° |
| 2026-05-06 22:30 | 53.70149 | 22.63481 | 39818 ft | 458 kts | 193° |
| 2026-05-06 22:31 | 53.63875 | 22.61620 | 39812 ft | 458 kts | 193° |
| 2026-05-06 22:31 | 53.57597 | 22.59709 | 39812 ft | 458 kts | 193° |
| 2026-05-06 22:32 | 53.51324 | 22.57781 | 39810 ft | 458 kts | 193° |
| 2026-05-06 22:32 | 53.45093 | 22.55872 | 39807 ft | 458 kts | 193° |
| 2026-05-06 22:33 | 53.38822 | 22.53957 | 39804 ft | 459 kts | 193° |
| 2026-05-06 22:33 | 53.32540 | 22.52045 | 39805 ft | 459 kts | 193° |
| 2026-05-06 22:34 | 53.26256 | 22.50141 | 39800 ft | 459 kts | 193° |
| 2026-05-06 22:34 | 53.19969 | 22.48240 | 39795 ft | 459 kts | 193° |
| 2026-05-06 22:35 | 53.13678 | 22.46343 | 39795 ft | 459 kts | 193° |
| 2026-05-06 22:35 | 53.07391 | 22.44452 | 39796 ft | 459 kts | 193° |
| 2026-05-06 22:36 | 53.01134 | 22.42576 | 39795 ft | 460 kts | 193° |
| 2026-05-06 22:36 | 52.94833 | 22.40694 | 39795 ft | 460 kts | 193° |
| 2026-05-06 22:37 | 52.88524 | 22.38815 | 39795 ft | 461 kts | 193° |
| 2026-05-06 22:37 | 52.82218 | 22.36941 | 39803 ft | 461 kts | 193° |
| 2026-05-06 22:38 | 52.75894 | 22.35068 | 39804 ft | 461 kts | 193° |
| 2026-05-06 22:38 | 52.69575 | 22.33203 | 39804 ft | 461 kts | 193° |
| 2026-05-06 22:39 | 52.63248 | 22.31341 | 39805 ft | 462 kts | 193° |
| 2026-05-06 22:39 | 52.56914 | 22.29480 | 39811 ft | 462 kts | 193° |
| 2026-05-06 22:40 | 52.50576 | 22.27627 | 39812 ft | 463 kts | 193° |
| 2026-05-06 22:40 | 52.44234 | 22.25779 | 39810 ft | 463 kts | 193° |
| 2026-05-06 22:41 | 52.34750 | 22.23019 | 39804 ft | 464 kts | 193° |
| 2026-05-06 22:42 | 52.28352 | 22.21161 | 39804 ft | 464 kts | 193° |
| 2026-05-06 22:42 | 52.22042 | 22.19339 | 39804 ft | 464 kts | 193° |
| 2026-05-06 22:43 | 52.15676 | 22.17507 | 39803 ft | 464 kts | 193° |
| 2026-05-06 22:43 | 52.09315 | 22.15678 | 39809 ft | 465 kts | 193° |
| 2026-05-06 22:44 | 52.02949 | 22.13856 | 39804 ft | 465 kts | 193° |
| 2026-05-06 22:44 | 51.96628 | 22.12054 | 39804 ft | 464 kts | 193° |
| 2026-05-06 22:45 | 51.90260 | 22.10240 | 39805 ft | 464 kts | 193° |
| 2026-05-06 22:45 | 51.83896 | 22.08432 | 39804 ft | 465 kts | 193° |
| 2026-05-06 22:46 | 51.77527 | 22.06630 | 39805 ft | 464 kts | 193° |
| 2026-05-06 22:46 | 51.71162 | 22.04833 | 39804 ft | 464 kts | 193° |
| 2026-05-06 22:47 | 51.65873 | 22.03343 | 39804 ft | 465 kts | 193° |
| 2026-05-06 22:47 | 51.58462 | 22.01262 | 39812 ft | 465 kts | 193° |
| 2026-05-06 22:48 | 51.52091 | 21.99479 | 39811 ft | 465 kts | 193° |
| 2026-05-06 22:48 | 51.46794 | 21.98000 | 39812 ft | 465 kts | 193° |
| 2026-05-06 22:49 | 51.40423 | 21.96226 | 39810 ft | 465 kts | 193° |
| 2026-05-06 22:49 | 51.34039 | 21.94456 | 39811 ft | 465 kts | 193° |
| 2026-05-06 22:50 | 51.27667 | 21.92692 | 39823 ft | 465 kts | 193° |
| 2026-05-06 22:50 | 51.20263 | 21.90646 | 39811 ft | 465 kts | 193° |
| 2026-05-06 22:51 | 51.14924 | 21.89170 | 39828 ft | 465 kts | 193° |
| 2026-05-06 22:51 | 51.08583 | 21.87430 | 39819 ft | 465 kts | 193° |
| 2026-05-06 22:52 | 51.02204 | 21.85686 | 39828 ft | 465 kts | 193° |
| 2026-05-06 22:52 | 50.95819 | 21.83942 | 39822 ft | 466 kts | 193° |
| 2026-05-06 22:53 | 50.89436 | 21.82205 | 39828 ft | 466 kts | 193° |
| 2026-05-06 22:53 | 50.83043 | 21.80469 | 39827 ft | 467 kts | 193° |
| 2026-05-06 22:54 | 50.76682 | 21.78745 | 39826 ft | 467 kts | 193° |
| 2026-05-06 22:54 | 50.70275 | 21.77016 | 39826 ft | 467 kts | 193° |
| 2026-05-06 22:55 | 50.63867 | 21.75291 | 39827 ft | 467 kts | 193° |
| 2026-05-06 22:55 | 50.57454 | 21.73569 | 39841 ft | 468 kts | 193° |
| 2026-05-06 22:56 | 50.51030 | 21.71847 | 39842 ft | 468 kts | 193° |
| 2026-05-06 22:56 | 50.44653 | 21.70144 | 39845 ft | 468 kts | 193° |
| 2026-05-06 22:57 | 50.38225 | 21.68434 | 39850 ft | 469 kts | 193° |
| 2026-05-06 22:57 | 50.31790 | 21.66725 | 39852 ft | 469 kts | 192° |
| 2026-05-06 22:58 | 50.25346 | 21.65020 | 39848 ft | 470 kts | 192° |
| 2026-05-06 22:58 | 50.18904 | 21.63318 | 39851 ft | 470 kts | 192° |
| 2026-05-06 22:59 | 50.12455 | 21.61620 | 39853 ft | 470 kts | 192° |
| 2026-05-06 22:59 | 50.06055 | 21.59938 | 39854 ft | 470 kts | 192° |
| 2026-05-06 23:00 | 49.99607 | 21.58248 | 39861 ft | 470 kts | 192° |
| 2026-05-06 23:00 | 49.93159 | 21.56562 | 39861 ft | 470 kts | 192° |
| 2026-05-06 23:01 | 49.86714 | 21.54884 | 39859 ft | 470 kts | 192° |
| 2026-05-06 23:01 | 49.80260 | 21.53207 | 39860 ft | 470 kts | 192° |
| 2026-05-06 23:02 | 49.73815 | 21.51539 | 39861 ft | 470 kts | 192° |
| 2026-05-06 23:02 | 49.67411 | 21.49882 | 39868 ft | 470 kts | 192° |
| 2026-05-06 23:03 | 49.60963 | 21.48217 | 39868 ft | 470 kts | 192° |
| 2026-05-06 23:03 | 49.54518 | 21.46560 | 39869 ft | 469 kts | 192° |
| 2026-05-06 23:04 | 49.48084 | 21.44915 | 39876 ft | 469 kts | 192° |
| 2026-05-06 23:04 | 49.41646 | 21.43270 | 39878 ft | 469 kts | 192° |
| 2026-05-06 23:05 | 49.35216 | 21.41630 | 39879 ft | 469 kts | 192° |
| 2026-05-06 23:05 | 49.28824 | 21.40002 | 39887 ft | 468 kts | 192° |
| 2026-05-06 23:06 | 49.22398 | 21.38371 | 39887 ft | 468 kts | 192° |
| 2026-05-06 23:06 | 49.15972 | 21.36745 | 39896 ft | 468 kts | 192° |
| 2026-05-06 23:07 | 49.09541 | 21.35124 | 39898 ft | 468 kts | 192° |
| 2026-05-06 23:07 | 49.03110 | 21.33504 | 39905 ft | 469 kts | 192° |
| 2026-05-06 23:08 | 48.96667 | 21.31886 | 39904 ft | 476 kts | 192° |
| 2026-05-06 23:08 | 48.90101 | 21.30240 | 39905 ft | 480 kts | 192° |
| 2026-05-06 23:09 | 48.83512 | 21.28596 | 39905 ft | 480 kts | 192° |
| 2026-05-06 23:09 | 48.76923 | 21.26958 | 39908 ft | 480 kts | 192° |
| 2026-05-06 23:10 | 48.70283 | 21.25687 | 39919 ft | 484 kts | 184° |
| 2026-05-06 23:10 | 48.63614 | 21.26764 | 39916 ft | 489 kts | 171° |
| 2026-05-06 23:11 | 48.57015 | 21.29454 | 39914 ft | 492 kts | 166° |
| 2026-05-06 23:11 | 48.50460 | 21.32494 | 39912 ft | 493 kts | 166° |
| 2026-05-06 23:12 | 48.43889 | 21.35465 | 39908 ft | 493 kts | 166° |
| 2026-05-06 23:12 | 48.37335 | 21.38335 | 39906 ft | 493 kts | 167° |
| 2026-05-06 23:13 | 48.30799 | 21.41160 | 39915 ft | 494 kts | 167° |
| 2026-05-06 23:13 | 48.24190 | 21.44004 | 39916 ft | 494 kts | 167° |
| 2026-05-06 23:14 | 48.17579 | 21.46851 | 39920 ft | 495 kts | 167° |
| 2026-05-06 23:14 | 48.10956 | 21.49695 | 39913 ft | 495 kts | 167° |
| 2026-05-06 23:15 | 48.04332 | 21.52534 | 39913 ft | 495 kts | 167° |
| 2026-05-06 23:15 | 47.97753 | 21.55346 | 39916 ft | 496 kts | 167° |
| 2026-05-06 23:16 | 47.91118 | 21.58172 | 39913 ft | 496 kts | 167° |
| 2026-05-06 23:16 | 47.84476 | 21.60993 | 39912 ft | 496 kts | 167° |
| 2026-05-06 23:17 | 47.77834 | 21.63806 | 39917 ft | 496 kts | 167° |
| 2026-05-06 23:17 | 47.71199 | 21.66612 | 39923 ft | 496 kts | 167° |
| 2026-05-06 23:18 | 47.64600 | 21.69393 | 39931 ft | 496 kts | 167° |
| 2026-05-06 23:18 | 47.57952 | 21.72184 | 39933 ft | 496 kts | 167° |
| 2026-05-06 23:19 | 47.51311 | 21.74970 | 39935 ft | 496 kts | 167° |
| 2026-05-06 23:19 | 47.44733 | 21.77726 | 39935 ft | 487 kts | 167° |
| 2026-05-06 23:20 | 47.38281 | 21.80416 | 39934 ft | 484 kts | 167° |
| 2026-05-06 23:20 | 47.31793 | 21.83110 | 39933 ft | 485 kts | 167° |
| 2026-05-06 23:21 | 47.25268 | 21.85815 | 39933 ft | 491 kts | 167° |
| 2026-05-06 23:21 | 47.18668 | 21.88620 | 39932 ft | 496 kts | 166° |
| 2026-05-06 23:22 | 47.12035 | 21.91518 | 39934 ft | 498 kts | 166° |
| 2026-05-06 23:22 | 47.05439 | 21.94396 | 39932 ft | 498 kts | 166° |
| 2026-05-06 23:23 | 46.98794 | 21.97258 | 39933 ft | 497 kts | 166° |
| 2026-05-06 23:23 | 46.92150 | 22.00105 | 39943 ft | 497 kts | 166° |
| 2026-05-06 23:24 | 46.85502 | 22.02949 | 39945 ft | 499 kts | 166° |
| 2026-05-06 23:24 | 46.78814 | 22.05782 | 39943 ft | 501 kts | 166° |
| 2026-05-06 23:25 | 46.72129 | 22.08629 | 39942 ft | 501 kts | 166° |
| 2026-05-06 23:25 | 46.65491 | 22.11445 | 39941 ft | 500 kts | 166° |
| 2026-05-06 23:26 | 46.58804 | 22.14275 | 39945 ft | 500 kts | 166° |
| 2026-05-06 23:26 | 46.52117 | 22.17101 | 39944 ft | 500 kts | 166° |
| 2026-05-06 23:27 | 46.45441 | 22.19911 | 39944 ft | 500 kts | 166° |
| 2026-05-06 23:27 | 46.38811 | 22.22700 | 39946 ft | 500 kts | 166° |
| 2026-05-06 23:28 | 46.32201 | 22.25481 | 39943 ft | 489 kts | 166° |
| 2026-05-06 23:28 | 46.25695 | 22.28204 | 39951 ft | 485 kts | 166° |
| 2026-05-06 23:29 | 46.19210 | 22.30902 | 39954 ft | 485 kts | 166° |
| 2026-05-06 23:29 | 46.12716 | 22.33604 | 39954 ft | 486 kts | 166° |
| 2026-05-06 23:30 | 46.06265 | 22.36277 | 39951 ft | 486 kts | 166° |
| 2026-05-06 23:30 | 45.99776 | 22.38968 | 39961 ft | 485 kts | 166° |
| 2026-05-06 23:31 | 45.93289 | 22.41649 | 39960 ft | 486 kts | 166° |
| 2026-05-06 23:31 | 45.86785 | 22.44331 | 39960 ft | 486 kts | 166° |
| 2026-05-06 23:32 | 45.80282 | 22.47003 | 39962 ft | 486 kts | 166° |
| 2026-05-06 23:32 | 45.73773 | 22.49674 | 39956 ft | 487 kts | 166° |
| 2026-05-06 23:33 | 45.67258 | 22.52345 | 39964 ft | 487 kts | 166° |
| 2026-05-06 23:33 | 45.60732 | 22.55003 | 39977 ft | 488 kts | 167° |
| 2026-05-06 23:34 | 45.54201 | 22.57657 | 39964 ft | 488 kts | 166° |
| 2026-05-06 23:34 | 45.47706 | 22.60293 | 39979 ft | 489 kts | 166° |
| 2026-05-06 23:35 | 45.41157 | 22.62946 | 39981 ft | 489 kts | 166° |
| 2026-05-06 23:35 | 45.34605 | 22.65591 | 39982 ft | 490 kts | 166° |
| 2026-05-06 23:36 | 45.28049 | 22.68236 | 39963 ft | 490 kts | 166° |
| 2026-05-06 23:36 | 45.21478 | 22.70879 | 39965 ft | 491 kts | 166° |
| 2026-05-06 23:37 | 45.14892 | 22.73517 | 39983 ft | 495 kts | 166° |
| 2026-05-06 23:37 | 45.08413 | 22.76115 | 39997 ft | 477 kts | 166° |
| 2026-05-06 23:38 | 45.01964 | 22.78690 | 39986 ft | 487 kts | 167° |
| 2026-05-06 23:38 | 44.95390 | 22.81303 | 39998 ft | 493 kts | 167° |
| 2026-05-06 23:39 | 44.88910 | 22.83882 | 40003 ft | 477 kts | 167° |
| 2026-05-06 23:39 | 44.82526 | 22.86419 | 39999 ft | 480 kts | 167° |
| 2026-05-06 23:40 | 44.76072 | 22.88966 | 39996 ft | 489 kts | 167° |
| 2026-05-06 23:40 | 44.69468 | 22.91565 | 39996 ft | 494 kts | 167° |
| 2026-05-06 23:41 | 44.62914 | 22.94150 | 40010 ft | 476 kts | 167° |
| 2026-05-06 23:41 | 44.59773 | 22.95391 | 40015 ft | 461 kts | 167° |
| 2026-05-06 23:41 | 44.56737 | 22.96588 | 40015 ft | 446 kts | 167° |
| 2026-05-06 23:41 | 44.53801 | 22.97743 | 40016 ft | 432 kts | 167° |
| 2026-05-06 23:42 | 44.50931 | 22.98873 | 40012 ft | 427 kts | 167° |
| 2026-05-06 23:42 | 44.45247 | 23.01087 | 40008 ft | 427 kts | 167° |
| 2026-05-06 23:43 | 44.39518 | 23.03312 | 40008 ft | 427 kts | 167° |
| 2026-05-06 23:43 | 44.33786 | 23.05541 | 40008 ft | 428 kts | 167° |
| 2026-05-06 23:44 | 44.28047 | 23.07771 | 40015 ft | 428 kts | 167° |
| 2026-05-06 23:44 | 44.22344 | 23.09984 | 40017 ft | 428 kts | 167° |
| 2026-05-06 23:45 | 44.16609 | 23.12204 | 40017 ft | 428 kts | 167° |
| 2026-05-06 23:45 | 44.10868 | 23.14422 | 40017 ft | 428 kts | 167° |
| 2026-05-06 23:46 | 44.05125 | 23.16636 | 40017 ft | 428 kts | 167° |
| 2026-05-06 23:46 | 43.99416 | 23.18833 | 40017 ft | 429 kts | 167° |
| 2026-05-06 23:47 | 43.93660 | 23.21043 | 40017 ft | 430 kts | 167° |
| 2026-05-06 23:47 | 43.87885 | 23.23233 | 40023 ft | 430 kts | 169° |
| 2026-05-06 23:48 | 43.81994 | 23.24013 | 40028 ft | 423 kts | 187° |
| 2026-05-06 23:48 | 43.76257 | 23.22553 | 40027 ft | 419 kts | 197° |
| 2026-05-06 23:49 | 43.70618 | 23.20507 | 40025 ft | 418 kts | 199° |
| 2026-05-06 23:49 | 43.65038 | 23.18418 | 40024 ft | 418 kts | 198° |
| 2026-05-06 23:50 | 43.59413 | 23.16357 | 40025 ft | 418 kts | 198° |
| 2026-05-06 23:50 | 43.50977 | 23.13321 | 40036 ft | 418 kts | 198° |
| 2026-05-06 23:51 | 43.45354 | 23.11308 | 40036 ft | 418 kts | 198° |
| 2026-05-06 23:51 | 43.39730 | 23.09298 | 40035 ft | 417 kts | 198° |
| 2026-05-06 23:52 | 43.34167 | 23.07239 | 40035 ft | 417 kts | 199° |
| 2026-05-06 23:52 | 43.28582 | 23.05078 | 40045 ft | 417 kts | 199° |
| 2026-05-06 23:53 | 43.23002 | 23.02926 | 40047 ft | 416 kts | 199° |
| 2026-05-06 23:53 | 43.17424 | 23.00803 | 40057 ft | 416 kts | 199° |
| 2026-05-06 23:54 | 43.11835 | 22.98686 | 40051 ft | 416 kts | 199° |
| 2026-05-06 23:54 | 43.06291 | 22.96587 | 40047 ft | 416 kts | 199° |
| 2026-05-06 23:55 | 43.00708 | 22.94468 | 40059 ft | 417 kts | 199° |
| 2026-05-06 23:55 | 42.95120 | 22.92355 | 40054 ft | 417 kts | 199° |
| 2026-05-06 23:56 | 42.89533 | 22.90248 | 40062 ft | 417 kts | 199° |
| 2026-05-06 23:56 | 42.83980 | 22.88160 | 40060 ft | 416 kts | 199° |
| 2026-05-06 23:57 | 42.78380 | 22.86057 | 40055 ft | 421 kts | 199° |
| 2026-05-06 23:57 | 42.72675 | 22.83915 | 40061 ft | 431 kts | 199° |
| 2026-05-06 23:58 | 42.66824 | 22.81724 | 40069 ft | 441 kts | 199° |
| 2026-05-06 23:58 | 42.60875 | 22.79503 | 40068 ft | 452 kts | 199° |
| 2026-05-06 23:59 | 42.54742 | 22.77218 | 40064 ft | 462 kts | 199° |
| 2026-05-06 23:59 | 42.48474 | 22.74888 | 40072 ft | 472 kts | 199° |
| 2026-05-07 00:00 | 42.42066 | 22.72509 | 40060 ft | 482 kts | 199° |
| 2026-05-07 00:00 | 42.36670 | 22.70514 | 40072 ft | 484 kts | 199° |
| 2026-05-07 00:01 | 42.29129 | 22.67733 | 40058 ft | 483 kts | 199° |
| 2026-05-07 00:01 | 42.22642 | 22.65344 | 40055 ft | 483 kts | 199° |
| 2026-05-07 00:02 | 42.16164 | 22.62961 | 40050 ft | 483 kts | 199° |
| 2026-05-07 00:02 | 42.09634 | 22.60792 | 40054 ft | 486 kts | 192° |
| 2026-05-07 00:03 | 42.02891 | 22.59882 | 40050 ft | 488 kts | 187° |
| 2026-05-07 00:03 | 41.96159 | 22.59261 | 40064 ft | 488 kts | 187° |
| 2026-05-07 00:04 | 41.89370 | 22.58672 | 40067 ft | 489 kts | 187° |
| 2026-05-07 00:04 | 41.82580 | 22.58061 | 40065 ft | 489 kts | 187° |
| 2026-05-07 00:05 | 41.75793 | 22.57429 | 40059 ft | 489 kts | 187° |
| 2026-05-07 00:05 | 41.69010 | 22.56800 | 40061 ft | 486 kts | 187° |
| 2026-05-07 00:06 | 41.65686 | 22.56498 | 40077 ft | 472 kts | 187° |
| 2026-05-07 00:06 | 41.62446 | 22.56206 | 40075 ft | 463 kts | 187° |
| 2026-05-07 00:06 | 41.56089 | 22.55623 | 40054 ft | 461 kts | 187° |
| 2026-05-07 00:07 | 41.49692 | 22.55028 | 40065 ft | 461 kts | 187° |
| 2026-05-07 00:07 | 41.43296 | 22.54438 | 40076 ft | 461 kts | 187° |
| 2026-05-07 00:08 | 41.36888 | 22.53851 | 40076 ft | 461 kts | 187° |
| 2026-05-07 00:08 | 41.30488 | 22.53267 | 40076 ft | 461 kts | 187° |
| 2026-05-07 00:09 | 41.24122 | 22.52687 | 40075 ft | 461 kts | 187° |
| 2026-05-07 00:09 | 41.17713 | 22.52103 | 40076 ft | 461 kts | 187° |
| 2026-05-07 00:10 | 41.11301 | 22.52753 | 40077 ft | 470 kts | 166° |
| 2026-05-07 00:10 | 41.05121 | 22.55675 | 40075 ft | 473 kts | 161° |
| 2026-05-07 00:11 | 40.99074 | 22.58970 | 40081 ft | 474 kts | 160° |
| 2026-05-07 00:11 | 40.92980 | 22.62313 | 40081 ft | 472 kts | 160° |
| 2026-05-07 00:12 | 40.86975 | 22.65551 | 40085 ft | 463 kts | 160° |
| 2026-05-07 00:12 | 40.81015 | 22.68725 | 40084 ft | 462 kts | 160° |
| 2026-05-07 00:13 | 40.75092 | 22.71866 | 40079 ft | 462 kts | 160° |
| 2026-05-07 00:13 | 40.69132 | 22.75023 | 40061 ft | 462 kts | 160° |
| 2026-05-07 00:14 | 40.63169 | 22.78177 | 40077 ft | 462 kts | 160° |
| 2026-05-07 00:14 | 40.57193 | 22.81333 | 40057 ft | 463 kts | 160° |
| 2026-05-07 00:15 | 40.51202 | 22.84492 | 40057 ft | 464 kts | 160° |
| 2026-05-07 00:15 | 40.45256 | 22.87621 | 40076 ft | 464 kts | 160° |
| 2026-05-07 00:16 | 40.39268 | 22.90766 | 40075 ft | 463 kts | 160° |
| 2026-05-07 00:16 | 40.33283 | 22.93903 | 40077 ft | 463 kts | 160° |
| 2026-05-07 00:17 | 40.27307 | 22.97029 | 40076 ft | 463 kts | 160° |
| 2026-05-07 00:17 | 40.21325 | 23.00152 | 40075 ft | 463 kts | 160° |
| 2026-05-07 00:18 | 40.15344 | 23.03269 | 40069 ft | 463 kts | 160° |
| 2026-05-07 00:18 | 40.09395 | 23.06363 | 40056 ft | 463 kts | 160° |
| 2026-05-07 00:19 | 40.03411 | 23.09470 | 40058 ft | 463 kts | 160° |
| 2026-05-07 00:19 | 39.97427 | 23.12571 | 40069 ft | 463 kts | 161° |
| 2026-05-07 00:20 | 39.91439 | 23.15668 | 40056 ft | 462 kts | 161° |
| 2026-05-07 00:20 | 39.85461 | 23.18754 | 40050 ft | 462 kts | 161° |
| 2026-05-07 00:21 | 39.79518 | 23.21816 | 40048 ft | 462 kts | 161° |
| 2026-05-07 00:21 | 39.73535 | 23.24893 | 40044 ft | 462 kts | 161° |
| 2026-05-07 00:22 | 39.67552 | 23.27964 | 40047 ft | 462 kts | 161° |
| 2026-05-07 00:22 | 39.61563 | 23.31033 | 40035 ft | 462 kts | 161° |
| 2026-05-07 00:23 | 39.55628 | 23.34068 | 40037 ft | 462 kts | 161° |
| 2026-05-07 00:23 | 39.49646 | 23.37122 | 40036 ft | 462 kts | 161° |
| 2026-05-07 00:24 | 39.43677 | 23.40163 | 40031 ft | 462 kts | 161° |
| 2026-05-07 00:24 | 39.37698 | 23.43204 | 40023 ft | 462 kts | 161° |
| 2026-05-07 00:25 | 39.31716 | 23.46241 | 40028 ft | 462 kts | 161° |
| 2026-05-07 00:25 | 39.25776 | 23.49251 | 40026 ft | 461 kts | 161° |
| 2026-05-07 00:26 | 39.19801 | 23.52273 | 40018 ft | 461 kts | 161° |
| 2026-05-07 00:26 | 39.13822 | 23.55292 | 40018 ft | 462 kts | 161° |
| 2026-05-07 00:27 | 39.07873 | 23.58290 | 40019 ft | 462 kts | 161° |
| 2026-05-07 00:27 | 39.01887 | 23.61301 | 40026 ft | 462 kts | 161° |
| 2026-05-07 00:28 | 38.95876 | 23.64229 | 40027 ft | 461 kts | 166° |
| 2026-05-07 00:28 | 38.89630 | 23.65777 | 40027 ft | 456 kts | 176° |
| 2026-05-07 00:29 | 38.83323 | 23.66734 | 40037 ft | 456 kts | 176° |
| 2026-05-07 00:30 | 38.70818 | 23.69568 | 40029 ft | 461 kts | 168° |
| 2026-05-07 00:30 | 38.64671 | 23.71929 | 40050 ft | 462 kts | 163° |
| 2026-05-07 00:31 | 38.58715 | 23.75060 | 40047 ft | 465 kts | 156° |
| 2026-05-07 00:31 | 38.53027 | 23.79066 | 40010 ft | 469 kts | 149° |